sensor_id;sensor_type;location;lat;lon;timestamp;noise_LAeq;noise_LA_min;noise_LA_max;noise_LA01;noise_LA95
72978;Laerm;61167;55.884;37.524;2023-03-01T00:00:54;45.02;40.84;49.02;;
72978;Laerm;61167;55.884;37.524;2023-03-01T00:01:54;44.62;40.66;49.21;;
72978;Laerm;61167;55.884;37.524;2023-03-01T00:02:55;45.23;41.40;49.12;;
72978;Laerm;61167;55.884;37.524;2023-03-01T00:03:56;44.58;40.94;50.82;;
72978;Laerm;61167;55.884;37.524;2023-03-01T00:04:56;44.09;40.62;48.53;;
72978;Laerm;61167;55.884;37.524;2023-03-01T00:05:57;44.58;40.77;51.96;;
72978;Laerm;61167;55.884;37.524;2023-03-01T00:06:57;44.13;40.57;48.36;;
72978;Laerm;61167;55.884;37.524;2023-03-01T00:07:58;44.03;40.41;55.23;;
72978;Laerm;61167;55.884;37.524;2023-03-01T00:08:58;44.09;40.21;47.85;;
72978;Laerm;61167;55.884;37.524;2023-03-01T00:09:59;45.22;41.54;49.61;;
72978;Laerm;61167;55.884;37.524;2023-03-01T00:11:03;45.44;41.88;49.60;;
72978;Laerm;61167;55.884;37.524;2023-03-01T00:12:05;44.63;40.99;50.09;;
72978;Laerm;61167;55.884;37.524;2023-03-01T00:13:05;44.50;39.91;49.30;;
72978;Laerm;61167;55.884;37.524;2023-03-01T00:14:06;45.48;42.05;49.62;;
72978;Laerm;61167;55.884;37.524;2023-03-01T00:15:06;44.75;40.36;51.11;;
72978;Laerm;61167;55.884;37.524;2023-03-01T00:16:08;43.74;39.54;47.26;;
72978;Laerm;61167;55.884;37.524;2023-03-01T00:17:09;44.74;40.21;48.39;;
72978;Laerm;61167;55.884;37.524;2023-03-01T00:18:09;44.55;41.10;49.77;;
72978;Laerm;61167;55.884;37.524;2023-03-01T00:19:12;44.44;40.63;47.40;;
72978;Laerm;61167;55.884;37.524;2023-03-01T00:20:12;44.25;40.92;48.18;;
72978;Laerm;61167;55.884;37.524;2023-03-01T00:21:13;44.98;40.97;48.56;;
72978;Laerm;61167;55.884;37.524;2023-03-01T00:22:13;44.81;41.29;47.63;;
72978;Laerm;61167;55.884;37.524;2023-03-01T00:23:13;46.01;42.00;50.77;;
72978;Laerm;61167;55.884;37.524;2023-03-01T00:24:15;44.71;40.41;50.05;;
72978;Laerm;61167;55.884;37.524;2023-03-01T00:25:15;45.26;40.52;49.12;;
72978;Laerm;61167;55.884;37.524;2023-03-01T00:26:16;44.51;40.65;48.93;;
72978;Laerm;61167;55.884;37.524;2023-03-01T00:27:18;45.10;41.02;49.47;;
72978;Laerm;61167;55.884;37.524;2023-03-01T00:28:18;44.90;39.93;49.10;;
72978;Laerm;61167;55.884;37.524;2023-03-01T00:29:19;45.35;41.34;50.09;;
72978;Laerm;61167;55.884;37.524;2023-03-01T00:30:19;45.19;41.01;49.67;;
72978;Laerm;61167;55.884;37.524;2023-03-01T00:31:21;45.52;41.45;48.94;;
72978;Laerm;61167;55.884;37.524;2023-03-01T00:32:22;45.87;42.11;53.53;;
72978;Laerm;61167;55.884;37.524;2023-03-01T00:33:22;46.09;42.01;53.95;;
72978;Laerm;61167;55.884;37.524;2023-03-01T00:34:22;45.39;40.69;49.64;;
72978;Laerm;61167;55.884;37.524;2023-03-01T00:35:23;46.82;41.75;51.62;;
72978;Laerm;61167;55.884;37.524;2023-03-01T00:36:24;44.66;40.24;47.81;;
72978;Laerm;61167;55.884;37.524;2023-03-01T00:37:25;44.97;41.45;52.03;;
72978;Laerm;61167;55.884;37.524;2023-03-01T00:38:25;45.54;42.04;49.92;;
72978;Laerm;61167;55.884;37.524;2023-03-01T00:39:25;45.20;41.02;49.31;;
72978;Laerm;61167;55.884;37.524;2023-03-01T00:40:26;46.38;42.61;51.83;;
72978;Laerm;61167;55.884;37.524;2023-03-01T00:41:27;46.66;40.58;60.03;;
72978;Laerm;61167;55.884;37.524;2023-03-01T00:42:27;45.36;41.35;57.01;;
72978;Laerm;61167;55.884;37.524;2023-03-01T00:43:29;45.73;42.00;54.63;;
72978;Laerm;61167;55.884;37.524;2023-03-01T00:44:29;45.53;41.91;49.45;;
72978;Laerm;61167;55.884;37.524;2023-03-01T00:45:29;45.80;41.90;54.67;;
72978;Laerm;61167;55.884;37.524;2023-03-01T00:46:31;46.07;41.90;52.51;;
72978;Laerm;61167;55.884;37.524;2023-03-01T00:47:31;45.35;41.80;50.48;;
72978;Laerm;61167;55.884;37.524;2023-03-01T00:48:32;45.25;41.18;48.93;;
72978;Laerm;61167;55.884;37.524;2023-03-01T00:49:32;46.25;41.90;50.73;;
72978;Laerm;61167;55.884;37.524;2023-03-01T00:50:33;46.40;41.94;59.36;;
72978;Laerm;61167;55.884;37.524;2023-03-01T00:51:33;45.65;41.61;53.08;;
72978;Laerm;61167;55.884;37.524;2023-03-01T00:52:33;44.70;41.47;50.49;;
72978;Laerm;61167;55.884;37.524;2023-03-01T00:53:34;45.34;41.27;49.68;;
72978;Laerm;61167;55.884;37.524;2023-03-01T00:54:34;45.28;41.58;56.23;;
72978;Laerm;61167;55.884;37.524;2023-03-01T00:55:35;45.63;41.64;54.99;;
72978;Laerm;61167;55.884;37.524;2023-03-01T00:56:36;45.52;41.57;58.70;;
72978;Laerm;61167;55.884;37.524;2023-03-01T00:57:36;44.93;41.00;50.38;;
72978;Laerm;61167;55.884;37.524;2023-03-01T00:58:36;46.23;41.24;55.82;;
72978;Laerm;61167;55.884;37.524;2023-03-01T00:59:37;45.50;41.60;50.41;;
72978;Laerm;61167;55.884;37.524;2023-03-01T01:00:37;45.46;41.09;49.41;;
72978;Laerm;61167;55.884;37.524;2023-03-01T01:01:38;45.36;40.95;50.20;;
72978;Laerm;61167;55.884;37.524;2023-03-01T01:02:38;45.09;41.21;50.24;;
72978;Laerm;61167;55.884;37.524;2023-03-01T01:03:38;45.32;40.93;49.75;;
72978;Laerm;61167;55.884;37.524;2023-03-01T01:04:39;46.11;41.61;50.53;;
72978;Laerm;61167;55.884;37.524;2023-03-01T01:05:39;45.49;42.03;50.57;;
72978;Laerm;61167;55.884;37.524;2023-03-01T01:06:44;45.00;41.20;48.90;;
72978;Laerm;61167;55.884;37.524;2023-03-01T01:07:45;45.87;42.00;49.66;;
72978;Laerm;61167;55.884;37.524;2023-03-01T01:08:45;45.31;41.79;49.06;;
72978;Laerm;61167;55.884;37.524;2023-03-01T01:09:46;45.51;41.68;49.15;;
72978;Laerm;61167;55.884;37.524;2023-03-01T01:10:46;45.45;41.59;52.12;;
72978;Laerm;61167;55.884;37.524;2023-03-01T01:11:48;45.04;41.48;48.81;;
72978;Laerm;61167;55.884;37.524;2023-03-01T01:12:49;44.82;41.21;48.09;;
72978;Laerm;61167;55.884;37.524;2023-03-01T01:13:50;45.25;41.44;50.75;;
72978;Laerm;61167;55.884;37.524;2023-03-01T01:14:50;45.93;41.37;52.47;;
72978;Laerm;61167;55.884;37.524;2023-03-01T01:15:51;45.08;40.37;49.39;;
72978;Laerm;61167;55.884;37.524;2023-03-01T07:41:37;53.50;49.35;58.84;;
72978;Laerm;61167;55.884;37.524;2023-03-01T07:42:37;50.93;47.00;61.74;;
72978;Laerm;61167;55.884;37.524;2023-03-01T07:43:38;51.47;47.47;57.13;;
72978;Laerm;61167;55.884;37.524;2023-03-01T07:44:38;52.54;48.65;59.22;;
72978;Laerm;61167;55.884;37.524;2023-03-01T07:45:38;51.61;47.59;56.01;;
72978;Laerm;61167;55.884;37.524;2023-03-01T07:46:39;51.66;46.99;55.77;;
72978;Laerm;61167;55.884;37.524;2023-03-01T07:47:39;51.01;47.07;56.83;;
72978;Laerm;61167;55.884;37.524;2023-03-01T07:48:39;52.31;48.39;58.25;;
72978;Laerm;61167;55.884;37.524;2023-03-01T07:49:40;51.77;46.78;55.95;;
72978;Laerm;61167;55.884;37.524;2023-03-01T07:50:40;51.32;47.21;55.81;;
72978;Laerm;61167;55.884;37.524;2023-03-01T07:51:40;53.54;47.75;62.54;;
72978;Laerm;61167;55.884;37.524;2023-03-01T07:52:44;51.15;46.49;58.11;;
72978;Laerm;61167;55.884;37.524;2023-03-01T07:53:48;51.70;47.24;56.38;;
72978;Laerm;61167;55.884;37.524;2023-03-01T07:54:48;53.18;47.54;62.17;;
72978;Laerm;61167;55.884;37.524;2023-03-01T07:55:49;53.45;47.55;66.09;;
72978;Laerm;61167;55.884;37.524;2023-03-01T07:56:49;51.49;47.38;58.75;;
72978;Laerm;61167;55.884;37.524;2023-03-01T07:57:49;50.40;46.77;55.70;;
72978;Laerm;61167;55.884;37.524;2023-03-01T07:58:49;51.89;47.71;59.02;;
72978;Laerm;61167;55.884;37.524;2023-03-01T07:59:50;52.64;48.44;62.87;;
72978;Laerm;61167;55.884;37.524;2023-03-01T08:00:50;52.16;47.42;62.92;;
72978;Laerm;61167;55.884;37.524;2023-03-01T08:01:50;52.66;47.82;60.83;;
72978;Laerm;61167;55.884;37.524;2023-03-01T08:02:51;54.44;49.54;59.31;;
72978;Laerm;61167;55.884;37.524;2023-03-01T08:03:51;59.66;49.09;66.03;;
72978;Laerm;61167;55.884;37.524;2023-03-01T08:04:51;56.19;48.13;65.97;;
72978;Laerm;61167;55.884;37.524;2023-03-01T08:05:52;52.92;47.74;62.65;;
72978;Laerm;61167;55.884;37.524;2023-03-01T08:06:53;53.18;48.46;58.06;;
72978;Laerm;61167;55.884;37.524;2023-03-01T08:07:53;52.80;48.43;62.73;;
72978;Laerm;61167;55.884;37.524;2023-03-01T08:08:54;54.18;49.20;61.68;;
72978;Laerm;61167;55.884;37.524;2023-03-01T08:09:58;51.45;47.02;58.24;;
72978;Laerm;61167;55.884;37.524;2023-03-01T08:10:59;57.70;47.97;69.85;;
72978;Laerm;61167;55.884;37.524;2023-03-01T08:11:59;61.31;51.61;71.13;;
72978;Laerm;61167;55.884;37.524;2023-03-01T08:13:00;59.75;52.73;73.54;;
72978;Laerm;61167;55.884;37.524;2023-03-01T08:14:00;60.17;51.86;73.44;;
72978;Laerm;61167;55.884;37.524;2023-03-01T08:15:00;58.18;51.45;69.44;;
72978;Laerm;61167;55.884;37.524;2023-03-01T08:16:01;58.05;52.36;72.29;;
72978;Laerm;61167;55.884;37.524;2023-03-01T08:17:02;63.00;53.75;71.75;;
72978;Laerm;61167;55.884;37.524;2023-03-01T08:18:03;60.30;50.26;71.27;;
72978;Laerm;61167;55.884;37.524;2023-03-01T08:19:10;55.93;50.64;72.83;;
72978;Laerm;61167;55.884;37.524;2023-03-01T08:20:11;55.43;50.22;63.86;;
72978;Laerm;61167;55.884;37.524;2023-03-01T08:21:13;57.40;51.90;70.29;;
72978;Laerm;61167;55.884;37.524;2023-03-01T08:22:15;55.99;50.36;70.97;;
72978;Laerm;61167;55.884;37.524;2023-03-01T08:23:15;55.60;50.16;65.04;;
72978;Laerm;61167;55.884;37.524;2023-03-01T08:24:16;54.20;48.50;71.73;;
72978;Laerm;61167;55.884;37.524;2023-03-01T08:25:16;55.20;49.61;60.54;;
72978;Laerm;61167;55.884;37.524;2023-03-01T08:26:17;53.53;48.48;62.91;;
72978;Laerm;61167;55.884;37.524;2023-03-01T08:27:18;55.07;50.22;69.08;;
72978;Laerm;61167;55.884;37.524;2023-03-01T08:28:18;56.85;51.38;62.88;;
72978;Laerm;61167;55.884;37.524;2023-03-01T08:29:19;53.84;48.88;59.24;;
72978;Laerm;61167;55.884;37.524;2023-03-01T08:30:19;54.97;50.62;60.35;;
72978;Laerm;61167;55.884;37.524;2023-03-01T08:31:25;53.95;49.66;69.36;;
72978;Laerm;61167;55.884;37.524;2023-03-01T08:32:26;54.85;49.26;62.40;;
72978;Laerm;61167;55.884;37.524;2023-03-01T08:33:26;55.32;50.79;60.96;;
72978;Laerm;61167;55.884;37.524;2023-03-01T08:34:26;58.41;50.51;69.25;;
72978;Laerm;61167;55.884;37.524;2023-03-01T08:35:27;56.81;50.98;64.02;;
72978;Laerm;61167;55.884;37.524;2023-03-01T08:36:29;57.33;50.20;64.53;;
72978;Laerm;61167;55.884;37.524;2023-03-01T08:37:29;58.83;53.32;72.88;;
72978;Laerm;61167;55.884;37.524;2023-03-01T08:38:30;57.77;51.76;68.53;;
72978;Laerm;61167;55.884;37.524;2023-03-01T08:39:33;67.71;52.63;85.40;;
72978;Laerm;61167;55.884;37.524;2023-03-01T08:40:34;63.28;52.91;82.27;;
72978;Laerm;61167;55.884;37.524;2023-03-01T08:41:34;56.92;52.54;65.81;;
72978;Laerm;61167;55.884;37.524;2023-03-01T08:42:35;58.58;51.60;74.71;;
72978;Laerm;61167;55.884;37.524;2023-03-01T08:43:36;61.30;53.72;73.43;;
72978;Laerm;61167;55.884;37.524;2023-03-01T08:44:37;58.16;52.47;65.60;;
72978;Laerm;61167;55.884;37.524;2023-03-01T08:45:37;58.93;51.67;72.76;;
72978;Laerm;61167;55.884;37.524;2023-03-01T08:46:38;57.75;52.28;72.73;;
72978;Laerm;61167;55.884;37.524;2023-03-01T08:47:39;56.76;51.63;63.57;;
72978;Laerm;61167;55.884;37.524;2023-03-01T08:48:39;57.15;52.06;72.90;;
72978;Laerm;61167;55.884;37.524;2023-03-01T08:49:43;58.34;51.28;64.49;;
72978;Laerm;61167;55.884;37.524;2023-03-01T08:50:43;55.43;50.21;68.88;;
72978;Laerm;61167;55.884;37.524;2023-03-01T08:51:44;58.65;52.50;72.47;;
72978;Laerm;61167;55.884;37.524;2023-03-01T08:52:44;55.42;50.70;62.69;;
72978;Laerm;61167;55.884;37.524;2023-03-01T08:53:45;56.83;50.50;68.38;;
72978;Laerm;61167;55.884;37.524;2023-03-01T08:54:49;56.44;49.31;68.06;;
72978;Laerm;61167;55.884;37.524;2023-03-01T08:55:49;52.87;48.99;58.26;;
72978;Laerm;61167;55.884;37.524;2023-03-01T08:56:49;57.72;50.23;73.74;;
72978;Laerm;61167;55.884;37.524;2023-03-01T08:57:50;57.83;49.90;67.00;;
72978;Laerm;61167;55.884;37.524;2023-03-01T08:58:50;59.02;49.66;76.26;;
72978;Laerm;61167;55.884;37.524;2023-03-01T08:59:50;57.61;52.95;62.09;;
72978;Laerm;61167;55.884;37.524;2023-03-01T09:00:51;52.55;48.77;57.69;;
72978;Laerm;61167;55.884;37.524;2023-03-01T09:01:51;52.68;48.56;61.28;;
72978;Laerm;61167;55.884;37.524;2023-03-01T09:02:51;52.80;48.53;58.92;;
72978;Laerm;61167;55.884;37.524;2023-03-01T09:03:53;55.80;48.22;69.52;;
72978;Laerm;61167;55.884;37.524;2023-03-01T09:04:53;58.00;49.07;72.96;;
72978;Laerm;61167;55.884;37.524;2023-03-01T09:05:53;56.49;51.57;74.64;;
72978;Laerm;61167;55.884;37.524;2023-03-01T09:06:59;56.31;52.31;67.61;;
72978;Laerm;61167;55.884;37.524;2023-03-01T09:08:00;54.72;50.12;68.70;;
72978;Laerm;61167;55.884;37.524;2023-03-01T09:09:01;56.50;50.50;69.57;;
72978;Laerm;61167;55.884;37.524;2023-03-01T09:10:01;57.37;49.16;70.72;;
72978;Laerm;61167;55.884;37.524;2023-03-01T09:11:05;56.99;50.05;68.47;;
72978;Laerm;61167;55.884;37.524;2023-03-01T09:12:06;59.23;49.04;77.41;;
72978;Laerm;61167;55.884;37.524;2023-03-01T09:13:09;56.90;49.73;71.32;;
72978;Laerm;61167;55.884;37.524;2023-03-01T09:14:10;57.25;50.42;63.79;;
72978;Laerm;61167;55.884;37.524;2023-03-01T09:15:11;55.97;47.74;62.49;;
72978;Laerm;61167;55.884;37.524;2023-03-01T09:16:13;57.77;52.20;68.31;;
72978;Laerm;61167;55.884;37.524;2023-03-01T09:17:13;53.06;48.66;58.19;;
72978;Laerm;61167;55.884;37.524;2023-03-01T09:18:14;56.40;47.72;73.57;;
72978;Laerm;61167;55.884;37.524;2023-03-01T09:19:17;57.15;50.30;67.80;;
72978;Laerm;61167;55.884;37.524;2023-03-01T09:20:17;51.95;48.15;60.42;;
72978;Laerm;61167;55.884;37.524;2023-03-01T09:21:18;54.96;49.11;63.23;;
72978;Laerm;61167;55.884;37.524;2023-03-01T09:22:20;60.89;51.74;70.19;;
72978;Laerm;61167;55.884;37.524;2023-03-01T09:23:21;53.28;48.48;59.65;;
72978;Laerm;61167;55.884;37.524;2023-03-01T09:24:22;50.46;47.50;61.62;;
72978;Laerm;61167;55.884;37.524;2023-03-01T09:25:22;52.86;47.53;59.08;;
72978;Laerm;61167;55.884;37.524;2023-03-01T09:26:23;50.97;47.47;57.26;;
72978;Laerm;61167;55.884;37.524;2023-03-01T09:27:24;52.93;48.05;57.88;;
72978;Laerm;61167;55.884;37.524;2023-03-01T09:28:25;52.33;47.91;59.68;;
72978;Laerm;61167;55.884;37.524;2023-03-01T09:29:25;51.93;46.87;58.06;;
72978;Laerm;61167;55.884;37.524;2023-03-01T09:30:26;52.08;46.88;57.06;;
72978;Laerm;61167;55.884;37.524;2023-03-01T09:31:26;52.18;47.64;59.79;;
72978;Laerm;61167;55.884;37.524;2023-03-01T09:32:26;52.95;47.16;58.04;;
72978;Laerm;61167;55.884;37.524;2023-03-01T09:33:27;50.94;45.84;57.34;;
72978;Laerm;61167;55.884;37.524;2023-03-01T09:34:28;49.04;45.51;53.67;;
72978;Laerm;61167;55.884;37.524;2023-03-01T09:35:28;52.51;47.05;58.94;;
72978;Laerm;61167;55.884;37.524;2023-03-01T09:36:28;48.86;45.42;54.13;;
72978;Laerm;61167;55.884;37.524;2023-03-01T09:37:31;52.32;45.19;58.31;;
72978;Laerm;61167;55.884;37.524;2023-03-01T09:38:31;49.12;45.43;54.03;;
72978;Laerm;61167;55.884;37.524;2023-03-01T09:39:33;49.14;44.32;56.42;;
72978;Laerm;61167;55.884;37.524;2023-03-01T09:40:35;50.52;46.73;60.48;;
72978;Laerm;61167;55.884;37.524;2023-03-01T09:41:46;52.40;46.76;71.77;;
72978;Laerm;61167;55.884;37.524;2023-03-01T09:42:50;51.70;46.67;60.54;;
72978;Laerm;61167;55.884;37.524;2023-03-01T09:43:52;52.54;46.63;60.70;;
72978;Laerm;61167;55.884;37.524;2023-03-01T09:44:57;51.68;47.99;56.08;;
72978;Laerm;61167;55.884;37.524;2023-03-01T09:46:00;48.51;45.32;59.27;;
72978;Laerm;61167;55.884;37.524;2023-03-01T09:47:04;51.55;46.26;66.15;;
72978;Laerm;61167;55.884;37.524;2023-03-01T09:48:05;53.92;46.83;60.57;;
72978;Laerm;61167;55.884;37.524;2023-03-01T09:49:15;50.93;47.32;66.40;;
72978;Laerm;61167;55.884;37.524;2023-03-01T09:50:18;52.92;46.33;62.31;;
72978;Laerm;61167;55.884;37.524;2023-03-01T09:51:31;52.47;47.09;57.41;;
72978;Laerm;61167;55.884;37.524;2023-03-01T09:53:06;52.48;47.11;67.34;;
72978;Laerm;61167;55.884;37.524;2023-03-01T09:53:59;55.10;48.01;62.45;;
72978;Laerm;61167;55.884;37.524;2023-03-01T09:55:01;52.73;48.69;57.51;;
72978;Laerm;61167;55.884;37.524;2023-03-01T09:59:33;53.74;49.99;60.14;;
72978;Laerm;61167;55.884;37.524;2023-03-01T10:00:42;53.31;49.63;56.49;;
72978;Laerm;61167;55.884;37.524;2023-03-01T10:06:26;52.72;48.75;60.76;;
72978;Laerm;61167;55.884;37.524;2023-03-01T10:07:37;53.37;48.93;63.38;;
72978;Laerm;61167;55.884;37.524;2023-03-01T10:09:43;51.65;47.07;60.19;;
72978;Laerm;61167;55.884;37.524;2023-03-01T10:10:45;60.55;51.20;66.47;;
72978;Laerm;61167;55.884;37.524;2023-03-01T10:11:47;51.96;47.06;58.41;;
72978;Laerm;61167;55.884;37.524;2023-03-01T10:12:49;53.63;47.95;60.38;;
72978;Laerm;61167;55.884;37.524;2023-03-01T10:16:16;54.02;48.92;59.87;;
72978;Laerm;61167;55.884;37.524;2023-03-01T10:17:21;53.84;48.49;60.14;;
72978;Laerm;61167;55.884;37.524;2023-03-01T10:18:25;53.62;47.84;68.28;;
72978;Laerm;61167;55.884;37.524;2023-03-01T10:19:31;51.27;47.20;58.54;;
72978;Laerm;61167;55.884;37.524;2023-03-01T10:21:47;52.47;48.62;60.52;;
72978;Laerm;61167;55.884;37.524;2023-03-01T10:22:49;53.41;49.06;63.04;;
72978;Laerm;61167;55.884;37.524;2023-03-01T10:23:52;57.25;48.91;72.98;;
72978;Laerm;61167;55.884;37.524;2023-03-01T10:24:54;51.53;46.78;58.39;;
72978;Laerm;61167;55.884;37.524;2023-03-01T10:26:02;52.20;48.13;57.19;;
72978;Laerm;61167;55.884;37.524;2023-03-01T10:30:10;58.67;53.28;68.55;;
72978;Laerm;61167;55.884;37.524;2023-03-01T10:31:13;55.68;52.49;59.17;;
72978;Laerm;61167;55.884;37.524;2023-03-01T10:32:15;56.94;53.20;64.20;;
72978;Laerm;61167;55.884;37.524;2023-03-01T10:34:18;53.87;48.65;61.78;;
72978;Laerm;61167;55.884;37.524;2023-03-01T10:35:23;52.94;48.64;58.81;;
72978;Laerm;61167;55.884;37.524;2023-03-01T10:36:23;52.89;48.09;59.70;;
72978;Laerm;61167;55.884;37.524;2023-03-01T10:37:24;52.44;47.10;57.25;;
72978;Laerm;61167;55.884;37.524;2023-03-01T10:38:27;56.88;50.29;63.18;;
72978;Laerm;61167;55.884;37.524;2023-03-01T10:39:30;56.84;48.49;66.53;;
72978;Laerm;61167;55.884;37.524;2023-03-01T10:40:31;54.97;49.10;62.44;;
72978;Laerm;61167;55.884;37.524;2023-03-01T10:41:31;65.26;50.32;73.24;;
72978;Laerm;61167;55.884;37.524;2023-03-01T10:42:33;52.45;48.01;60.80;;
72978;Laerm;61167;55.884;37.524;2023-03-01T10:44:47;53.69;48.33;61.42;;
72978;Laerm;61167;55.884;37.524;2023-03-01T10:45:48;52.23;48.12;62.53;;
72978;Laerm;61167;55.884;37.524;2023-03-01T10:46:58;54.38;49.86;62.51;;
72978;Laerm;61167;55.884;37.524;2023-03-01T10:48:42;58.80;49.57;67.26;;
72978;Laerm;61167;55.884;37.524;2023-03-01T10:49:25;57.44;51.72;71.03;;
72978;Laerm;61167;55.884;37.524;2023-03-01T10:50:26;56.66;50.84;66.96;;
72978;Laerm;61167;55.884;37.524;2023-03-01T10:51:26;58.61;51.90;75.61;;
72978;Laerm;61167;55.884;37.524;2023-03-01T10:52:28;59.87;54.67;66.67;;
72978;Laerm;61167;55.884;37.524;2023-03-01T10:53:31;61.27;55.28;71.29;;
72978;Laerm;61167;55.884;37.524;2023-03-01T10:54:32;60.70;55.50;74.48;;
72978;Laerm;61167;55.884;37.524;2023-03-01T10:55:39;60.41;54.29;77.90;;
72978;Laerm;61167;55.884;37.524;2023-03-01T10:56:49;60.37;54.76;68.15;;
72978;Laerm;61167;55.884;37.524;2023-03-01T10:57:50;62.22;54.33;76.67;;
72978;Laerm;61167;55.884;37.524;2023-03-01T10:59:09;61.05;53.49;69.25;;
72978;Laerm;61167;55.884;37.524;2023-03-01T11:00:23;57.49;52.92;65.06;;
72978;Laerm;61167;55.884;37.524;2023-03-01T11:02:28;57.15;51.53;69.66;;
72978;Laerm;61167;55.884;37.524;2023-03-01T11:03:30;58.67;53.74;74.27;;
72978;Laerm;61167;55.884;37.524;2023-03-01T11:04:31;58.66;51.82;70.70;;
72978;Laerm;61167;55.884;37.524;2023-03-01T11:05:32;58.60;52.63;71.98;;
72978;Laerm;61167;55.884;37.524;2023-03-01T11:06:34;56.12;51.96;68.32;;
72978;Laerm;61167;55.884;37.524;2023-03-01T11:07:46;58.57;51.96;73.68;;
72978;Laerm;61167;55.884;37.524;2023-03-01T11:08:50;58.08;51.55;74.59;;
72978;Laerm;61167;55.884;37.524;2023-03-01T11:09:50;57.37;52.12;65.39;;
72978;Laerm;61167;55.884;37.524;2023-03-01T11:10:51;58.79;52.82;72.14;;
72978;Laerm;61167;55.884;37.524;2023-03-01T11:12:03;57.55;51.01;70.64;;
72978;Laerm;61167;55.884;37.524;2023-03-01T11:13:06;56.74;51.16;67.79;;
72978;Laerm;61167;55.884;37.524;2023-03-01T11:14:15;59.62;52.14;75.17;;
72978;Laerm;61167;55.884;37.524;2023-03-01T11:15:20;57.58;51.98;68.35;;
72978;Laerm;61167;55.884;37.524;2023-03-01T11:17:28;59.66;50.48;77.13;;
72978;Laerm;61167;55.884;37.524;2023-03-01T11:18:29;57.64;51.90;71.98;;
72978;Laerm;61167;55.884;37.524;2023-03-01T11:19:30;65.14;53.99;82.00;;
72978;Laerm;61167;55.884;37.524;2023-03-01T11:20:32;64.22;54.90;76.02;;
72978;Laerm;61167;55.884;37.524;2023-03-01T11:21:33;63.50;55.09;72.11;;
72978;Laerm;61167;55.884;37.524;2023-03-01T11:22:34;64.60;53.94;75.33;;
72978;Laerm;61167;55.884;37.524;2023-03-01T11:23:35;64.74;54.52;78.12;;
72978;Laerm;61167;55.884;37.524;2023-03-01T11:25:44;62.96;54.47;74.18;;
72978;Laerm;61167;55.884;37.524;2023-03-01T11:26:50;63.46;54.18;78.39;;
72978;Laerm;61167;55.884;37.524;2023-03-01T11:27:51;61.84;54.37;70.29;;
72978;Laerm;61167;55.884;37.524;2023-03-01T11:28:54;59.49;53.34;74.24;;
72978;Laerm;61167;55.884;37.524;2023-03-01T11:29:57;57.69;53.30;73.64;;
72978;Laerm;61167;55.884;37.524;2023-03-01T11:31:00;58.56;53.46;69.68;;
72978;Laerm;61167;55.884;37.524;2023-03-01T11:32:05;58.09;53.50;69.80;;
72978;Laerm;61167;55.884;37.524;2023-03-01T11:35:02;57.87;52.38;70.50;;
72978;Laerm;61167;55.884;37.524;2023-03-01T11:35:57;56.89;50.13;70.00;;
72978;Laerm;61167;55.884;37.524;2023-03-01T11:37:02;59.83;51.76;66.31;;
72978;Laerm;61167;55.884;37.524;2023-03-01T11:39:37;62.13;52.82;70.81;;
72978;Laerm;61167;55.884;37.524;2023-03-01T11:40:47;61.19;50.69;71.36;;
72978;Laerm;61167;55.884;37.524;2023-03-01T11:42:11;55.80;49.43;64.39;;
72978;Laerm;61167;55.884;37.524;2023-03-01T11:43:24;60.65;50.34;75.22;;
72978;Laerm;61167;55.884;37.524;2023-03-01T11:44:28;61.42;52.64;71.01;;
72978;Laerm;61167;55.884;37.524;2023-03-01T11:45:32;61.97;50.30;70.45;;
72978;Laerm;61167;55.884;37.524;2023-03-01T11:46:37;61.98;52.14;69.31;;
72978;Laerm;61167;55.884;37.524;2023-03-01T11:51:00;57.89;50.80;68.98;;
72978;Laerm;61167;55.884;37.524;2023-03-01T11:57:03;56.94;51.21;67.21;;
72978;Laerm;61167;55.884;37.524;2023-03-01T11:58:21;58.53;52.49;69.30;;
72978;Laerm;61167;55.884;37.524;2023-03-01T12:12:36;56.76;49.72;72.26;;
72978;Laerm;61167;55.884;37.524;2023-03-01T12:14:55;55.84;50.61;69.38;;
72978;Laerm;61167;55.884;37.524;2023-03-01T12:16:01;53.37;49.08;62.97;;
72978;Laerm;61167;55.884;37.524;2023-03-01T12:18:09;53.96;49.42;62.46;;
72978;Laerm;61167;55.884;37.524;2023-03-01T12:33:39;57.40;50.38;68.51;;
72978;Laerm;61167;55.884;37.524;2023-03-01T12:34:55;55.28;51.06;66.17;;
72978;Laerm;61167;55.884;37.524;2023-03-01T12:37:20;57.77;51.56;69.55;;
72978;Laerm;61167;55.884;37.524;2023-03-01T12:38:33;60.16;52.66;72.84;;
72978;Laerm;61167;55.884;37.524;2023-03-01T12:40:00;57.26;50.96;70.31;;
72978;Laerm;61167;55.884;37.524;2023-03-01T12:43:47;63.45;52.43;76.31;;
72978;Laerm;61167;55.884;37.524;2023-03-01T12:47:26;57.74;52.81;65.61;;
72978;Laerm;61167;55.884;37.524;2023-03-01T12:49:41;57.12;51.46;68.39;;
72978;Laerm;61167;55.884;37.524;2023-03-01T12:50:51;57.24;50.15;71.22;;
72978;Laerm;61167;55.884;37.524;2023-03-01T12:52:59;65.24;53.95;74.12;;
72978;Laerm;61167;55.884;37.524;2023-03-01T12:54:01;57.60;53.19;71.45;;
72978;Laerm;61167;55.884;37.524;2023-03-01T12:55:07;58.02;51.92;66.36;;
72978;Laerm;61167;55.884;37.524;2023-03-01T12:56:10;57.77;52.07;68.15;;
72978;Laerm;61167;55.884;37.524;2023-03-01T12:57:15;55.10;50.99;64.05;;
72978;Laerm;61167;55.884;37.524;2023-03-01T12:58:34;57.56;51.97;68.14;;
72978;Laerm;61167;55.884;37.524;2023-03-01T12:59:38;59.26;51.63;70.91;;
72978;Laerm;61167;55.884;37.524;2023-03-01T13:02:01;62.50;55.45;78.09;;
72978;Laerm;61167;55.884;37.524;2023-03-01T13:03:10;62.79;54.24;79.01;;
72978;Laerm;61167;55.884;37.524;2023-03-01T13:06:21;57.23;50.82;68.69;;
72978;Laerm;61167;55.884;37.524;2023-03-01T13:07:35;54.44;49.76;62.85;;
72978;Laerm;61167;55.884;37.524;2023-03-01T13:08:48;54.82;51.26;69.92;;
72978;Laerm;61167;55.884;37.524;2023-03-01T13:10:38;58.21;50.83;73.17;;
72978;Laerm;61167;55.884;37.524;2023-03-01T13:11:31;56.69;50.33;74.88;;
72978;Laerm;61167;55.884;37.524;2023-03-01T13:15:28;53.94;48.92;64.54;;
72978;Laerm;61167;55.884;37.524;2023-03-01T13:17:39;54.68;50.13;62.56;;
72978;Laerm;61167;55.884;37.524;2023-03-01T13:18:44;54.22;48.64;67.51;;
72978;Laerm;61167;55.884;37.524;2023-03-01T13:19:53;54.42;51.07;58.36;;
72978;Laerm;61167;55.884;37.524;2023-03-01T13:20:56;55.52;50.33;69.28;;
72978;Laerm;61167;55.884;37.524;2023-03-01T13:21:58;54.96;49.62;63.41;;
72978;Laerm;61167;55.884;37.524;2023-03-01T13:23:00;53.09;48.80;59.25;;
72978;Laerm;61167;55.884;37.524;2023-03-01T13:24:01;53.18;49.96;64.02;;
72978;Laerm;61167;55.884;37.524;2023-03-01T13:25:12;55.11;49.40;61.30;;
72978;Laerm;61167;55.884;37.524;2023-03-01T13:26:17;54.30;49.78;64.32;;
72978;Laerm;61167;55.884;37.524;2023-03-01T13:29:44;60.58;56.06;66.06;;
72978;Laerm;61167;55.884;37.524;2023-03-01T13:30:46;59.60;55.45;66.08;;
72978;Laerm;61167;55.884;37.524;2023-03-01T13:32:49;58.29;50.03;67.84;;
72978;Laerm;61167;55.884;37.524;2023-03-01T13:33:50;53.09;49.09;67.16;;